KCEW

Bob Sikes Airport

Crestview, Florida, USA
METAR KCEW 140402Z AUTO 01004KT 10SM OVC004 09/08 A3021 RMK AO2 RAE01 P0000 T00940083
Observed Flight Rules
Nov-14 @ 04:02 UTC (47 minutes ago) Instrument Flight Rules
Wind Visibility Clouds
10° at 4 knots 10 miles
  • Overcast at 400' AGL
Temperatures Readings Precipitation
Current 9°C / 48°F
Dewpoint 8°C / 46°F
Humidity 94%
Altimeter 30.21" Hg
Pressure 1023 hPa
Elevation 55
Current Rain 0.005
METAR KCEW 140402Z AUTO 01004KT 10SM OVC004 09/08 A3021 RMK AO2 RAE01 P0000 T00940083
Observed Flight Rules
Nov-14 @ 04:02 UTC
(47 minutes ago)
LIFR
Wind Visibility
10° at 4 knots 10 miles
Clouds
  • Overcast at 400' AGL
Temperature Dewpoint
9°C / 48°F 8°C / 46°F
Humidity Altimeter Pressure
94% 30.21" Hg 1023 hPa
Current Rain
0.005